Time;durP1;ratioP1;P1;durP2;ratioP2;P2;SDS_P1;SDS_P2;PMS_P1;PMS_P2;Temp;Humidity;BMP_temperature;BMP_pressure;BME280_temperature;BME280_humidity;BME280_pressure;Samples;Min_cycle;Max_cycle;Signal;HPM_P1;HPM_P2
2022/03/16 00:00:17;;;;;;;42.80;20.60;;;;;;;2.29;81.70;100176.41;5041621;28;20252;-87
2022/03/16 00:02:43;;;;;;;44.63;21.13;;;;;;;4.35;81.44;100493.09;5069891;28;20412;-86
2022/03/16 00:05:09;;;;;;;38.70;19.73;;;;;;;4.40;81.62;100523.56;5061845;28;20211;-85
2022/03/16 00:07:34;;;;;;;38.60;19.07;;;;;;;2.07;80.70;100122.81;5091127;28;20802;-87
2022/03/16 00:10:00;;;;;;;34.17;19.13;;;;;;;4.50;80.76;100494.41;5077970;28;20218;-88
2022/03/16 00:12:26;;;;;;;36.87;19.63;;;;;;;1.86;80.65;100046.06;5058171;28;20182;-87
2022/03/16 00:14:51;;;;;;;34.07;18.63;;;;;;;4.20;80.11;100463.34;5077293;28;20272;-88
2022/03/16 00:17:17;;;;;;;35.90;19.63;;;;;;;2.10;80.15;100093.13;5076886;28;20165;-87
2022/03/16 00:19:44;;;;;;;42.93;20.00;;;;;;;4.25;80.59;100490.56;5076437;28;20165;-86
2022/03/16 00:22:10;;;;;;;36.93;19.40;;;;;;;3.33;81.63;100349.78;5061105;28;20169;-88
2022/03/16 00:24:36;;;;;;;39.27;19.43;;;;;;;4.24;81.69;100490.41;5059504;28;20408;-88
2022/03/16 00:27:02;;;;;;;43.80;19.63;;;;;;;2.18;81.16;100122.16;5056421;28;20437;-86
2022/03/16 00:29:28;;;;;;;39.10;19.20;;;;;;;1.62;82.93;100085.56;5079764;28;20415;-87
2022/03/16 00:31:53;;;;;;;41.37;19.63;;;;;;;2.18;84.19;100222.94;5061972;28;20457;-86
2022/03/16 00:34:19;;;;;;;37.97;19.40;;;;;;;3.01;85.76;100379.50;5059900;28;20815;-88
2022/03/16 00:36:45;;;;;;;40.17;19.90;;;;;;;1.11;86.69;100055.97;5075427;28;20153;-89
2022/03/16 00:39:10;;;;;;;43.90;21.77;;;;;;;2.46;87.09;100303.72;5074936;28;20161;-87
2022/03/16 00:41:37;;;;;;;44.47;21.30;;;;;;;3.26;86.63;100387.53;5073003;28;20176;-86
2022/03/16 00:44:10;;;;;;;46.40;22.47;;;;;;;1.66;85.58;100087.59;5073608;28;20200;-89
2022/03/16 00:46:36;;;;;;;44.17;21.17;;;;;;;1.55;84.64;100073.31;5056182;28;20945;-87
2022/03/16 00:49:03;;;;;;;47.93;23.87;;;;;;;3.89;84.93;100460.72;5073957;28;20418;-88
2022/03/16 00:51:29;;;;;;;44.67;22.07;;;;;;;0.46;83.37;99840.75;5056121;28;20516;-87
2022/03/16 00:53:55;;;;;;;49.00;23.10;;;;;;;2.97;83.01;100290.78;5075313;28;20407;-87
2022/03/16 00:56:20;;;;;;;50.97;23.30;;;;;;;1.43;82.16;100001.50;5058479;28;20176;-87
2022/03/16 00:58:45;;;;;;;49.80;22.57;;;;;;;2.11;81.42;100109.88;5077786;28;20162;-86
2022/03/16 01:01:11;;;;;;;47.70;23.07;;;;;;;3.32;82.18;100331.41;5055933;28;20161;-88
2022/03/16 01:03:40;;;;;;;54.93;24.00;;;;;;;2.04;82.20;100088.47;5071599;28;20160;-88
2022/03/16 01:06:06;;;;;;;46.07;24.83;;;;;;;2.48;83.21;100202.25;5073381;28;20156;-87
2022/03/16 01:08:31;;;;;;;48.40;23.77;;;;;;;2.72;82.16;100199.41;5057803;28;20433;-87
2022/03/16 01:10:57;;;;;;;49.97;25.37;;;;;;;3.98;82.90;100438.09;5057672;28;20621;-87
2022/03/16 01:13:23;;;;;;;51.43;25.97;;;;;;;3.84;83.15;100400.97;5074403;28;20164;-87
2022/03/16 01:15:48;;;;;;;56.13;27.57;;;;;;;3.26;83.01;100290.84;5071929;28;20423;-88
2022/03/16 01:18:15;;;;;;;54.07;27.33;;;;;;;2.88;82.70;100207.47;5055556;28;20169;-87
2022/03/16 01:20:41;;;;;;;53.67;27.03;;;;;;;3.30;83.30;100326.97;5072977;28;20645;-87
2022/03/16 01:23:06;;;;;;;54.53;27.20;;;;;;;1.63;84.92;100059.88;5071300;28;20415;-87
2022/03/16 01:25:32;;;;;;;50.07;25.60;;;;;;;3.69;86.90;100454.72;5071455;28;20511;-88
2022/03/16 01:27:57;;;;;;;50.67;25.97;;;;;;;3.55;87.37;100451.00;5075734;28;20629;-87
2022/03/16 01:30:23;;;;;;;50.00;24.13;;;;;;;1.62;86.85;100082.22;5079231;28;20188;-86
2022/03/16 01:32:48;;;;;;;46.03;23.10;;;;;;;1.25;86.90;100025.66;5060440;28;20184;-85
2022/03/16 01:35:13;;;;;;;49.80;23.00;;;;;;;3.38;89.02;100409.47;5066133;28;20173;-87
2022/03/16 01:37:41;;;;;;;52.57;25.63;;;;;;;2.08;89.80;100215.38;5057627;28;20221;-87
2022/03/16 01:40:07;;;;;;;51.50;25.93;;;;;;;2.32;91.24;100255.00;5036552;28;20166;-86
2022/03/16 01:42:33;;;;;;;50.33;24.80;;;;;;;3.38;90.16;100401.09;5053513;28;20436;-86
2022/03/16 01:44:59;;;;;;;56.17;25.20;;;;;;;2.16;90.33;100194.44;5058439;28;20505;-86
2022/03/16 01:47:26;;;;;;;50.90;23.30;;;;;;;3.02;92.29;100395.38;5054481;28;20897;-88
2022/03/16 01:49:54;;;;;;;46.50;24.13;;;;;;;0.00;92.22;99871.41;5054365;28;20164;-86
2022/03/16 01:52:22;;;;;;;55.10;25.23;;;;;;;2.60;91.90;100253.34;5073619;28;20403;-86
2022/03/16 01:54:49;;;;;;;51.83;24.97;;;;;;;3.26;91.85;100360.00;5074641;28;20407;-87
2022/03/16 01:57:15;;;;;;;51.67;25.87;;;;;;;2.40;89.49;100190.72;5072891;28;20403;-87
2022/03/16 01:59:42;;;;;;;58.27;27.10;;;;;;;3.49;89.07;100350.34;5054091;28;20430;-86
2022/03/16 02:02:08;;;;;;;59.57;27.27;;;;;;;3.03;89.02;100260.44;5054324;28;20403;-87
2022/03/16 02:04:34;;;;;;;62.83;29.23;;;;;;;1.68;88.31;100007.88;5054179;28;20492;-87
2022/03/16 02:06:59;;;;;;;60.93;29.90;;;;;;;3.57;88.88;100331.88;5051965;28;20509;-86
2022/03/16 02:09:25;;;;;;;63.30;29.67;;;;;;;2.10;88.23;100083.13;5051616;28;20169;-86
2022/03/16 02:11:51;;;;;;;64.60;29.13;;;;;;;3.76;87.11;100317.69;5052277;28;20181;-86
2022/03/16 02:14:19;;;;;;;60.03;30.50;;;;;;;3.77;87.61;100313.53;5052491;28;20625;-87
2022/03/16 02:16:45;;;;;;;66.87;30.90;;;;;;;3.12;86.53;100200.31;5052987;28;20165;-86
2022/03/16 02:19:11;;;;;;;62.77;30.33;;;;;;;3.07;86.61;100189.06;5037149;28;20404;-87
2022/03/16 02:21:38;;;;;;;60.40;29.63;;;;;;;1.84;86.49;99982.66;5051910;28;20403;-88
2022/03/16 02:24:07;;;;;;;76.63;33.73;;;;;;;3.36;86.01;100242.44;5051448;28;20623;-86
2022/03/16 02:26:33;;;;;;;106.17;45.40;;;;;;;3.96;85.58;100320.22;5051506;28;20866;-88
2022/03/16 02:28:59;;;;;;;95.30;42.63;;;;;;;2.51;84.73;100074.22;5051470;28;20415;-87
2022/03/16 02:31:25;;;;;;;69.83;32.60;;;;;;;3.15;86.21;100215.59;5055079;28;20833;-87
2022/03/16 02:33:51;;;;;;;62.93;30.67;;;;;;;1.67;85.15;99953.75;5055920;28;20648;-86
2022/03/16 02:36:17;;;;;;;68.47;31.87;;;;;;;3.86;85.77;100320.19;5070337;28;20459;-87
2022/03/16 02:38:43;;;;;;;63.87;32.43;;;;;;;2.35;85.89;100070.41;5069795;28;20471;-86
2022/03/16 02:41:09;;;;;;;64.20;31.23;;;;;;;2.56;85.70;100082.97;5041957;28;20979;-87
2022/03/16 02:43:34;;;;;;;81.40;38.03;;;;;;;2.14;84.53;100005.25;5039122;28;20617;-86
2022/03/16 02:46:00;;;;;;;86.07;40.47;;;;;;;3.05;84.67;100141.41;5070434;28;20233;-87
2022/03/16 02:48:26;;;;;;;75.07;35.27;;;;;;;3.31;84.61;100188.63;5072683;28;20235;-86
2022/03/16 02:50:51;;;;;;;77.30;37.03;;;;;;;2.92;83.78;100137.00;5094588;28;20719;-88
2022/03/16 02:53:16;;;;;;;68.97;34.47;;;;;;;2.48;84.56;100071.44;5082642;28;20159;-89
2022/03/16 02:55:44;;;;;;;139.83;55.17;;;;;;;3.85;84.73;100327.56;5059365;28;20172;-89
2022/03/16 02:58:10;;;;;;;93.97;40.90;;;;;;;2.08;85.19;100059.66;5076836;28;20655;-88
2022/03/16 03:00:36;;;;;;;90.53;38.93;;;;;;;1.73;85.11;99964.25;5058123;28;20473;-88
2022/03/16 03:03:01;;;;;;;76.30;37.00;;;;;;;3.66;85.42;100294.19;5057246;28;20918;-87
2022/03/16 03:05:27;;;;;;;70.30;35.30;;;;;;;0.24;85.40;99701.03;5074879;28;20161;-87
2022/03/16 03:07:52;;;;;;;72.63;34.97;;;;;;;1.36;84.07;99889.44;5057403;28;20166;-88
2022/03/16 03:10:17;;;;;;;74.40;33.53;;;;;;;2.30;85.80;100073.28;5075121;28;20216;-88
2022/03/16 03:12:43;;;;;;;73.40;35.47;;;;;;;1.00;84.59;99847.22;5075118;28;20169;-87
2022/03/16 03:15:13;;;;;;;76.63;34.77;;;;;;;1.58;84.44;99953.81;5075074;28;20185;-87
2022/03/16 03:17:40;;;;;;;73.10;34.30;;;;;;;3.05;85.40;100186.41;5056775;28;20213;-87
2022/03/16 03:20:06;;;;;;;69.00;33.23;;;;;;;3.74;85.61;100306.63;5074947;28;20399;-87
2022/03/16 03:22:32;;;;;;;71.97;34.23;;;;;;;0.54;85.50;99735.22;5057696;28;20780;-87
2022/03/16 03:24:57;;;;;;;68.67;33.30;;;;;;;1.46;84.72;99902.84;5073922;28;20417;-88
2022/03/16 03:27:24;;;;;;;69.70;34.27;;;;;;;1.85;85.36;99979.41;5056860;28;20230;-87
2022/03/16 03:29:49;;;;;;;72.20;35.33;;;;;;;3.62;86.55;100293.09;5056858;28;20177;-88
2022/03/16 03:32:15;;;;;;;72.87;34.10;;;;;;;1.78;86.51;100006.34;5075418;28;20875;-88
2022/03/16 03:34:45;;;;;;;68.27;32.60;;;;;;;2.70;86.40;100132.53;5081316;28;20614;-89
2022/03/16 03:37:10;;;;;;;77.77;34.93;;;;;;;1.52;86.27;99903.38;5063202;28;20235;-88
2022/03/16 03:39:36;;;;;;;74.37;34.87;;;;;;;2.28;86.74;100019.81;5075652;28;20409;-88
2022/03/16 03:42:01;;;;;;;73.67;33.77;;;;;;;2.74;86.06;100079.56;5073421;28;20599;-87
2022/03/16 03:44:27;;;;;;;67.60;34.20;;;;;;;3.16;86.07;100164.84;5074374;28;20548;-88
2022/03/16 03:46:52;;;;;;;75.50;34.13;;;;;;;0.93;86.79;99792.63;5056914;28;20171;-88
2022/03/16 03:49:18;;;;;;;73.97;35.30;;;;;;;1.96;85.51;99938.75;5075452;28;20628;-88
2022/03/16 03:51:43;;;;;;;82.13;39.20;;;;;;;0.97;84.43;99777.19;5072986;28;20224;-88
2022/03/16 03:54:09;;;;;;;77.70;37.77;;;;;;;2.90;85.65;100141.00;5075003;28;20178;-88
2022/03/16 03:56:34;;;;;;;85.33;39.47;;;;;;;0.90;85.81;99763.34;5074733;28;20161;-87
2022/03/16 03:59:00;;;;;;;76.87;36.27;;;;;;;2.00;85.17;99945.78;5075167;28;20164;-88
2022/03/16 04:01:25;;;;;;;82.17;36.70;;;;;;;3.74;84.97;100246.53;5073429;28;20161;-87
2022/03/16 04:03:50;;;;;;;77.63;39.13;;;;;;;2.58;84.68;100029.91;5074374;28;20719;-88
2022/03/16 04:06:16;;;;;;;85.80;41.03;;;;;;;1.75;84.28;99883.78;5074584;28;20165;-88
2022/03/16 04:08:42;;;;;;;99.23;45.70;;;;;;;2.57;84.31;100019.78;5078727;28;20236;-87
2022/03/16 04:11:09;;;;;;;128.60;58.37;;;;;;;3.35;83.78;100138.09;5095117;28;20173;-86
2022/03/16 04:13:35;;;;;;;166.83;77.47;;;;;;;2.02;83.30;99921.81;5079871;28;20445;-87
2022/03/16 04:16:00;;;;;;;283.23;118.10;;;;;;;2.94;83.63;100064.59;5076864;28;20457;-87
2022/03/16 04:18:26;;;;;;;260.53;106.37;;;;;;;1.11;83.17;99737.75;5076269;28;20164;-87
2022/03/16 04:20:51;;;;;;;188.97;78.30;;;;;;;4.18;83.69;100257.72;5074818;28;20635;-88
2022/03/16 04:23:17;;;;;;;159.63;65.53;;;;;;;1.97;83.37;99890.59;5074332;28;20169;-87
2022/03/16 04:25:42;;;;;;;143.53;57.23;;;;;;;0.98;83.25;99714.13;5073533;28;20194;-88
2022/03/16 04:28:09;;;;;;;112.90;45.90;;;;;;;0.99;83.98;99734.19;5056414;28;20578;-88
2022/03/16 04:30:34;;;;;;;126.83;50.37;;;;;;;0.45;83.60;99612.38;5056115;28;20204;-86
2022/03/16 04:33:00;;;;;;;108.20;43.40;;;;;;;1.75;83.54;99863.81;5079556;28;20478;-87
2022/03/16 04:35:25;;;;;;;111.43;41.33;;;;;;;1.32;83.27;99783.56;5074825;28;20165;-87
2022/03/16 04:37:51;;;;;;;102.80;42.20;;;;;;;2.34;83.82;99986.22;5055810;28;20616;-88
2022/03/16 04:40:16;;;;;;;119.77;47.93;;;;;;;1.55;83.40;99847.88;5078856;28;20603;-88
2022/03/16 04:42:42;;;;;;;115.30;46.53;;;;;;;2.99;83.66;100075.88;5073221;28;20707;-87
2022/03/16 04:45:08;;;;;;;99.43;40.97;;;;;;;2.35;83.85;99980.50;5075240;28;20243;-89
2022/03/16 04:47:33;;;;;;;98.03;40.73;;;;;;;3.20;85.67;100169.34;5074909;28;20656;-88
2022/03/16 04:49:59;;;;;;;116.90;47.17;;;;;;;1.02;85.64;99790.91;5056209;28;20410;-89
2022/03/16 04:52:25;;;;;;;122.53;50.80;;;;;;;2.93;85.73;100083.75;5072066;28;20174;-87
2022/03/16 04:54:50;;;;;;;139.83;54.50;;;;;;;1.38;84.79;99819.00;5072827;28;20226;-88
2022/03/16 04:57:16;;;;;;;124.27;48.53;;;;;;;2.96;86.39;100139.03;5073876;28;20187;-87
2022/03/16 04:59:41;;;;;;;110.57;46.83;;;;;;;2.88;85.65;100094.09;5072785;28;20251;-87
2022/03/16 05:02:06;;;;;;;150.70;57.53;;;;;;;2.77;85.41;100068.22;5073494;28;20160;-87
2022/03/16 05:04:32;;;;;;;120.30;48.93;;;;;;;0.51;85.48;99646.16;5072421;28;20190;-88
2022/03/16 05:06:57;;;;;;;126.00;49.57;;;;;;;0.27;83.99;99591.78;5055932;28;20267;-87
2022/03/16 05:09:23;;;;;;;125.37;49.37;;;;;;;3.68;84.35;100183.44;5073616;28;20172;-88
2022/03/16 05:11:48;;;;;;;141.40;59.80;;;;;;;0.96;82.61;99695.69;5070866;28;20295;-87
2022/03/16 05:14:13;;;;;;;147.87;61.10;;;;;;;0.75;83.56;99683.88;5060980;28;20172;-87
2022/03/16 05:16:39;;;;;;;154.00;60.57;;;;;;;1.70;83.47;99865.03;5083003;28;20607;-88
2022/03/16 05:19:05;;;;;;;89.87;41.80;;;;;;;3.87;83.69;100225.91;5085140;28;20164;-87
2022/03/16 05:21:30;;;;;;;107.60;46.40;;;;;;;1.22;83.77;99761.09;5063175;28;20190;-88
2022/03/16 05:23:56;;;;;;;112.00;51.07;;;;;;;3.56;83.69;100142.38;5072405;28;20224;-87
2022/03/16 05:26:21;;;;;;;139.50;58.90;;;;;;;1.54;85.72;99847.00;5076772;28;20212;-89
2022/03/16 05:28:47;;;;;;;282.47;111.47;;;;;;;3.14;86.04;100086.25;5068488;28;20601;-87
2022/03/16 05:31:12;;;;;;;206.73;90.63;;;;;;;2.58;86.24;99981.56;5071693;28;20700;-88
2022/03/16 05:33:37;;;;;;;179.27;82.43;;;;;;;3.05;85.24;100038.00;5055798;28;20191;-89
2022/03/16 05:36:03;;;;;;;182.07;76.50;;;;;;;2.38;84.54;99902.44;5072416;28;20177;-88
2022/03/16 05:38:29;;;;;;;140.90;58.43;;;;;;;3.91;83.06;100132.72;5073215;28;20274;-89
2022/03/16 05:40:54;;;;;;;165.60;69.30;;;;;;;3.03;82.70;99975.34;5055854;28;20190;-87
2022/03/16 05:43:21;;;;;;;153.93;63.43;;;;;;;2.60;81.89;99888.47;5054156;28;20177;-88
2022/03/16 05:45:49;;;;;;;138.67;61.10;;;;;;;4.40;82.33;100193.53;5055229;28;20177;-89
2022/03/16 05:48:14;;;;;;;190.10;72.20;;;;;;;4.34;82.33;100188.03;5072928;28;20454;-89
2022/03/16 05:50:44;;;;;;;261.30;88.90;;;;;;;3.74;82.28;100087.91;5072626;28;20505;-88
2022/03/16 05:53:09;;;;;;;253.73;89.13;;;;;;;3.75;82.80;100104.69;5072854;28;20179;-87
2022/03/16 05:55:35;;;;;;;227.80;78.97;;;;;;;2.63;83.43;99913.72;5070831;28;20435;-88
2022/03/16 05:58:01;;;;;;;294.57;103.83;;;;;;;2.65;82.85;99902.19;5055585;28;20184;-87
2022/03/16 06:00:27;;;;;;;210.77;79.20;;;;;;;4.55;82.02;100198.91;5072912;28;20258;-87
2022/03/16 06:02:53;;;;;;;192.20;71.83;;;;;;;1.86;80.87;99736.56;5073209;28;20255;-88
2022/03/16 06:05:19;;;;;;;180.80;64.80;;;;;;;4.44;79.95;100129.50;5072249;28;20450;-88
2022/03/16 06:07:44;;;;;;;131.23;53.63;;;;;;;4.21;78.82;100089.22;5071997;28;20213;-88
2022/03/16 06:10:12;;;;;;;109.43;49.37;;;;;;;4.63;79.12;100190.38;5062582;28;20664;-87
2022/03/16 06:12:57;;;;;;;107.37;49.43;;;;;;;3.93;80.03;100078.63;5076894;28;20184;-87
2022/03/16 06:15:27;;;;;;;112.10;50.83;;;;;;;4.46;79.59;100161.47;5073587;28;20423;-87
2022/03/16 06:17:58;;;;;;;138.47;54.57;;;;;;;4.44;78.64;100132.91;5071429;28;20482;-88
2022/03/16 06:20:24;;;;;;;132.57;54.03;;;;;;;3.85;78.30;100042.06;5069845;28;20466;-87
2022/03/16 06:22:49;;;;;;;147.37;58.77;;;;;;;4.32;78.99;100141.06;5070682;28;20434;-88
2022/03/16 06:25:15;;;;;;;115.60;50.53;;;;;;;3.76;79.46;100027.22;5059237;28;20493;-88
2022/03/16 06:27:41;;;;;;;116.97;49.67;;;;;;;4.62;80.28;100183.59;5051228;28;20719;-88
2022/03/16 06:30:08;;;;;;;116.17;51.07;;;;;;;3.61;81.12;100036.00;5067760;28;20185;-86
2022/03/16 06:32:34;;;;;;;123.60;51.73;;;;;;;2.85;81.72;99902.22;5054632;28;20191;-86
2022/03/16 06:34:59;;;;;;;97.70;46.77;;;;;;;4.47;81.59;100169.84;5076319;28;20882;-88
2022/03/16 06:37:25;;;;;;;98.50;44.63;;;;;;;3.11;81.04;99958.44;5058632;28;20602;-89
2022/03/16 06:39:50;;;;;;;89.63;42.50;;;;;;;2.63;80.85;99851.22;5045922;28;20339;-89
2022/03/16 06:42:15;;;;;;;85.13;38.00;;;;;;;4.21;80.64;100114.25;5048168;28;20249;-89
2022/03/16 06:44:41;;;;;;;87.20;39.53;;;;;;;3.65;80.17;100042.13;5056488;28;20680;-88
2022/03/16 06:47:06;;;;;;;104.37;43.00;;;;;;;1.97;80.23;99765.78;5056634;28;20206;-90
2022/03/16 06:49:32;;;;;;;102.50;45.27;;;;;;;4.60;79.40;100182.59;5071404;28;20192;-87
2022/03/16 06:51:58;;;;;;;124.57;55.70;;;;;;;2.72;79.21;99846.09;5070261;28;20223;-89
2022/03/16 06:54:23;;;;;;;106.27;46.30;;;;;;;3.96;78.71;100049.69;5086083;28;20284;-88
2022/03/16 06:56:49;;;;;;;95.57;44.10;;;;;;;3.24;79.67;99946.22;5078161;28;20620;-90
2022/03/16 06:59:14;;;;;;;112.07;44.97;;;;;;;3.04;80.92;99946.22;5065986;28;20188;-89
2022/03/16 07:01:40;;;;;;;94.30;42.40;;;;;;;3.24;81.86;99951.22;5061310;28;20243;-89
2022/03/16 07:04:05;;;;;;;98.60;41.10;;;;;;;4.04;81.68;100076.22;5067339;28;20177;-90
2022/03/16 07:06:31;;;;;;;100.13;43.27;;;;;;;3.76;81.87;100002.19;5057933;28;20189;-89
2022/03/16 07:08:56;;;;;;;102.07;45.13;;;;;;;3.61;82.45;99988.41;5055797;28;20176;-89
2022/03/16 07:11:22;;;;;;;119.37;55.43;;;;;;;3.92;83.10;100067.75;5083637;28;20204;-90
2022/03/16 07:14:30;;;;;;;127.27;60.53;;;;;;;3.22;83.18;99947.69;5080072;28;20176;-88
2022/03/16 07:16:33;;;;;;;95.37;45.43;;;;;;;2.54;83.31;99819.59;5079287;28;20175;-89
2022/03/16 07:18:59;;;;;;;88.23;40.97;;;;;;;2.52;83.57;99826.13;5065183;28;20507;-88
2022/03/16 07:21:24;;;;;;;64.40;32.77;;;;;;;2.54;84.40;99819.59;5090249;28;20189;-89
2022/03/16 07:23:50;;;;;;;73.90;35.77;;;;;;;3.72;85.46;100022.69;5053593;28;20185;-89
2022/03/16 07:26:15;;;;;;;80.67;36.53;;;;;;;4.01;86.98;100080.97;5066315;28;20172;-91
2022/03/16 07:28:40;;;;;;;82.23;38.57;;;;;;;4.06;86.40;100079.75;5063524;28;20172;-91
2022/03/16 07:31:08;;;;;;;83.17;37.13;;;;;;;4.25;85.33;100086.19;5083746;28;20208;-87
2022/03/16 07:33:34;;;;;;;70.93;32.70;;;;;;;4.85;82.13;100162.84;5061367;28;20188;-87
2022/03/16 07:36:00;;;;;;;58.07;29.53;;;;;;;3.30;80.29;99876.63;5061298;28;20996;-87
2022/03/16 07:38:25;;;;;;;63.53;30.63;;;;;;;4.29;81.18;100079.03;5079389;28;20558;-88
2022/03/16 07:40:50;;;;;;;65.43;28.60;;;;;;;4.17;81.58;100028.81;5081107;28;20184;-88
2022/03/16 07:43:16;;;;;;;64.17;30.23;;;;;;;3.54;79.21;99869.41;5061994;28;20173;-88
2022/03/16 07:45:41;;;;;;;64.40;31.50;;;;;;;4.34;79.39;100037.66;5078856;28;20199;-88
2022/03/16 07:48:07;;;;;;;64.50;31.47;;;;;;;4.21;79.11;100012.41;5081770;28;20230;-88
2022/03/16 07:50:33;;;;;;;69.13;32.13;;;;;;;4.10;79.40;99969.00;5058731;28;20207;-89
2022/03/16 07:52:59;;;;;;;67.83;31.13;;;;;;;4.85;78.94;100080.94;5082130;28;20200;-88
2022/03/16 07:55:25;;;;;;;72.13;33.97;;;;;;;4.45;77.87;99980.88;5067547;28;20438;-87
2022/03/16 07:57:52;;;;;;;77.53;34.93;;;;;;;3.60;76.10;99796.44;5073202;28;20187;-85
2022/03/16 08:00:18;;;;;;;88.57;41.67;;;;;;;4.56;75.62;99877.28;5082329;28;20510;-87
2022/03/16 08:02:44;;;;;;;97.13;42.20;;;;;;;4.95;74.20;99931.97;5079106;28;20437;-92
2022/03/16 08:05:11;;;;;;;84.23;39.93;;;;;;;2.62;72.68;99508.72;5096981;28;20433;-91
2022/03/16 08:07:37;;;;;;;92.00;40.53;;;;;;;4.40;72.60;99811.69;5079031;28;20197;-91
2022/03/16 08:10:03;;;;;;;98.50;44.20;;;;;;;4.04;71.17;99720.53;5071247;28;20505;-90
2022/03/16 08:12:30;;;;;;;92.53;42.77;;;;;;;3.60;70.84;99658.75;5082192;28;20181;-89
2022/03/16 08:14:56;;;;;;;90.10;41.57;;;;;;;4.70;70.51;99801.41;5092409;28;20438;-89
2022/03/16 08:17:22;;;;;;;106.37;47.83;;;;;;;6.91;70.12;100127.19;5092591;28;20504;-89
2022/03/16 08:19:48;;;;;;;116.67;50.73;;;;;;;5.86;68.58;99927.84;5073929;28;20451;-89
2022/03/16 08:22:33;;;;;;;122.30;51.27;;;;;;;6.37;67.23;99990.91;5077451;28;20438;-89
2022/03/16 08:25:01;;;;;;;111.07;50.80;;;;;;;4.52;66.71;99683.13;5058057;28;20532;-89
2022/03/16 08:27:29;;;;;;;118.63;51.40;;;;;;;6.12;66.27;99938.84;5091631;28;20433;-89
2022/03/16 08:29:55;;;;;;;110.40;49.23;;;;;;;4.13;65.60;99568.41;5072634;28;20437;-90
2022/03/16 08:32:21;;;;;;;109.27;49.13;;;;;;;3.56;63.35;99477.50;5070030;28;20454;-90
2022/03/16 08:34:47;;;;;;;108.43;50.97;;;;;;;7.53;63.44;100106.25;5071868;28;20253;-90
2022/03/16 08:37:13;;;;;;;113.30;50.03;;;;;;;7.84;62.74;100114.22;5066528;28;20461;-89
2022/03/16 08:39:41;;;;;;;117.17;51.97;;;;;;;7.89;62.60;100104.41;5064178;28;21006;-89
2022/03/16 08:42:08;;;;;;;119.87;54.43;;;;;;;7.34;61.70;100016.78;5065452;28;20442;-89
2022/03/16 08:44:34;;;;;;;148.53;64.10;;;;;;;5.13;61.06;99603.00;5066128;28;20442;-89
2022/03/16 08:47:00;;;;;;;131.03;56.27;;;;;;;8.36;60.62;100115.94;5082243;28;20439;-90
2022/03/16 08:49:29;;;;;;;111.67;54.97;;;;;;;5.11;59.74;99483.25;5066514;28;20438;-89
2022/03/16 08:51:56;;;;;;;121.07;54.70;;;;;;;8.30;58.34;100015.53;5077022;28;20209;-88
2022/03/16 08:54:22;;;;;;;115.80;54.50;;;;;;;8.52;58.22;100095.94;5069719;28;20176;-90
2022/03/16 08:56:47;;;;;;;119.47;54.60;;;;;;;3.89;59.74;99365.47;5067953;28;20701;-90
2022/03/16 08:59:14;;;;;;;126.37;55.70;;;;;;;5.72;60.89;99735.06;5073929;28;20187;-90
2022/03/16 09:01:39;;;;;;;142.77;61.17;;;;;;;7.65;61.74;100099.53;5071991;28;20458;-88
2022/03/16 09:04:05;;;;;;;144.87;63.47;;;;;;;5.85;61.78;99747.72;5094723;28;21009;-90
2022/03/16 09:06:38;;;;;;;183.77;82.90;;;;;;;8.29;60.35;100078.53;5077586;28;20184;-90
2022/03/16 09:09:04;;;;;;;125.93;55.43;;;;;;;7.73;58.77;99938.75;5085784;28;20419;-89
2022/03/16 09:11:29;;;;;;;126.87;56.57;;;;;;;7.57;57.62;99865.50;5086923;28;20527;-89
2022/03/16 09:13:55;;;;;;;125.97;55.67;;;;;;;8.77;57.32;100056.31;5086866;28;20182;-89
2022/03/16 09:16:20;;;;;;;127.20;56.90;;;;;;;7.47;57.18;99841.34;5073544;28;20184;-88
2022/03/16 09:18:47;;;;;;;129.83;56.87;;;;;;;8.21;56.58;99973.72;5067288;28;20188;-88
2022/03/16 09:21:13;;;;;;;117.00;56.03;;;;;;;8.22;56.32;99966.25;5067693;28;20184;-89
2022/03/16 09:23:38;;;;;;;127.53;58.43;;;;;;;7.41;56.46;99772.13;5062298;28;20326;-88
2022/03/16 09:26:05;;;;;;;136.57;60.87;;;;;;;7.55;55.43;99767.13;5057109;28;20281;-89
2022/03/16 09:28:32;;;;;;;132.90;59.67;;;;;;;9.25;55.43;100012.03;5072006;28;20181;-90
2022/03/16 09:30:57;;;;;;;121.03;56.27;;;;;;;7.77;55.18;99771.84;5086408;28;20188;-90
2022/03/16 09:33:23;;;;;;;115.40;57.73;;;;;;;8.68;55.03;99900.94;5082447;28;20208;-90
2022/03/16 09:35:51;;;;;;;127.40;61.37;;;;;;;8.41;55.30;99907.72;5073490;28;20188;-89
2022/03/16 09:38:18;;;;;;;130.07;59.47;;;;;;;7.51;55.17;99746.72;5069055;28;20220;-90
2022/03/16 09:40:43;;;;;;;114.80;55.63;;;;;;;8.67;54.98;99957.22;5064751;28;20199;-89
2022/03/16 09:43:11;;;;;;;126.90;57.13;;;;;;;7.27;55.08;99709.97;5059550;28;20177;-90
2022/03/16 09:46:06;;;;;;;138.33;66.47;;;;;;;9.61;54.15;100064.72;5042548;28;20193;-89
2022/03/16 09:48:32;;;;;;;109.97;52.50;;;;;;;9.27;54.29;100025.63;5063246;28;20205;-88
2022/03/16 09:50:58;;;;;;;124.83;55.40;;;;;;;7.78;53.93;99729.84;5059927;28;20208;-90
2022/03/16 09:53:28;;;;;;;112.00;53.77;;;;;;;5.87;54.63;99411.19;5049142;28;20188;-91
2022/03/16 09:56:05;;;;;;;130.07;57.07;;;;;;;8.55;55.37;99922.03;5048526;28;20189;-90
2022/03/16 09:58:31;;;;;;;114.57;55.53;;;;;;;7.79;55.72;99809.72;5044290;28;20218;-91
2022/03/16 10:01:06;;;;;;;106.70;52.33;;;;;;;7.13;55.10;99661.28;5064497;28;20203;-93
2022/03/16 10:03:32;;;;;;;108.50;52.10;;;;;;;8.90;54.98;99947.69;5059152;28;20187;-90
2022/03/16 10:05:59;;;;;;;119.30;55.97;;;;;;;9.67;54.90;100044.84;5053887;28;20216;-89
2022/03/16 10:08:32;;;;;;;127.20;56.73;;;;;;;8.57;54.72;99866.63;5044631;28;20181;-91
2022/03/16 10:14:07;;;;;;;139.93;61.93;;;;;;;9.84;54.95;100038.19;5063461;28;20214;-91
2022/03/16 10:19:27;;;;;;;130.17;57.93;;;;;;;8.75;57.42;99920.69;5024653;28;20205;-92
2022/03/16 10:22:00;;;;;;;117.87;55.53;;;;;;;9.04;57.56;99988.06;5010314;28;20674;-89
2022/03/16 10:24:28;;;;;;;136.07;61.70;;;;;;;9.20;58.04;100049.66;4993643;28;20216;-89
2022/03/16 10:26:54;;;;;;;121.63;57.27;;;;;;;7.79;58.12;99853.44;5021905;28;20294;-90
2022/03/16 10:29:22;;;;;;;133.00;59.37;;;;;;;8.58;59.62;100002.97;5000746;28;20183;-91
2022/03/16 10:32:03;;;;;;;143.80;66.33;;;;;;;8.47;59.97;99985.44;4997310;28;20214;-90
2022/03/16 10:34:29;;;;;;;149.50;69.93;;;;;;;8.87;59.55;100024.94;4988012;28;20214;-90
2022/03/16 10:36:57;;;;;;;138.33;59.13;;;;;;;8.57;58.84;99960.00;5001006;28;20651;-89
2022/03/16 10:39:36;;;;;;;124.07;54.67;;;;;;;8.36;57.81;99904.06;5009286;28;20191;-90
2022/03/16 10:48:11;;;;;;;142.73;57.53;;;;;;;8.49;58.34;99931.75;4998608;28;20721;-91
2022/03/16 10:50:39;;;;;;;113.53;54.53;;;;;;;9.05;57.80;99998.25;5013972;28;20465;-89
2022/03/16 10:53:05;;;;;;;115.87;54.73;;;;;;;7.29;57.19;99670.63;4999174;28;20193;-90
2022/03/16 10:55:31;;;;;;;132.50;57.57;;;;;;;5.76;57.69;99463.25;5014573;28;20279;-90
2022/03/16 10:57:59;;;;;;;174.87;57.50;;;;;;;7.25;56.67;99651.94;5056890;28;20230;-91
2022/03/16 11:00:34;;;;;;;166.57;52.93;;;;;;;8.03;55.16;99741.50;5074508;28;20584;-91
2022/03/16 11:03:04;;;;;;;105.77;47.47;;;;;;;8.32;54.66;99790.28;5049172;28;20188;-90
2022/03/16 11:05:31;;;;;;;103.47;50.80;;;;;;;6.09;53.45;99321.28;5052385;28;20276;-91
2022/03/16 11:07:57;;;;;;;132.30;56.73;;;;;;;9.14;53.69;99922.13;5046885;28;20196;-93
2022/03/16 11:10:24;;;;;;;100.63;50.93;;;;;;;9.92;53.23;99981.34;5061646;28;20193;-89
2022/03/16 11:15:35;;;;;;;97.53;46.93;;;;;;;9.75;52.74;99967.75;5076151;28;20303;-90
2022/03/16 11:18:01;;;;;;;94.80;47.13;;;;;;;9.63;53.10;99969.63;5070904;28;20216;-90
2022/03/16 11:20:32;;;;;;;91.00;46.67;;;;;;;9.55;52.43;99978.44;5079850;28;20180;-89
2022/03/16 11:26:06;;;;;;;101.23;44.90;;;;;;;8.50;53.44;99859.47;5069454;28;20309;-90
2022/03/16 11:29:01;;;;;;;91.27;43.23;;;;;;;8.87;54.22;99936.56;5058702;28;20188;-89
2022/03/16 11:31:30;;;;;;;92.77;42.77;;;;;;;8.22;54.49;99882.13;4997862;28;20233;-89